Terminal Aerodrome Forecast
Issued by NWS

Home | Current Version | Previous Version | Text Only | Print | Product List | Glossary On
Versions: 1 2 3 4 5 6 7 8 9 10 11 12 13 14
000
FTUS41 KCAR 041120
TAFFVE
TAF
KFVE 041120Z 0412/0512 20005KT 1/2SM FG BKN002
     FM041300 21006KT P6SM FEW015 BKN150
     FM041700 23008KT P6SM VCTS BKN050CB
     FM050000 VRB03KT P6SM BKN150=

USA.gov is the U.S. government's official web portal to all federal, state and local government web resources and services.